sensor_id;sensor_type;location;lat;lon;timestamp;temperature;humidity
40059;SHT31;25763;49.972;8.568;2022-07-22T00:00:27;20.22;72.92
40059;SHT31;25763;49.972;8.568;2022-07-22T00:02:52;20.24;72.81
40059;SHT31;25763;49.972;8.568;2022-07-22T00:05:18;20.22;72.56
40059;SHT31;25763;49.972;8.568;2022-07-22T00:07:43;20.20;72.88
40059;SHT31;25763;49.972;8.568;2022-07-22T00:10:09;20.20;72.99
40059;SHT31;25763;49.972;8.568;2022-07-22T00:12:36;20.17;72.89
40059;SHT31;25763;49.972;8.568;2022-07-22T00:15:03;20.10;72.62
40059;SHT31;25763;49.972;8.568;2022-07-22T00:17:29;20.03;72.92
40059;SHT31;25763;49.972;8.568;2022-07-22T00:19:54;19.98;72.92
40059;SHT31;25763;49.972;8.568;2022-07-22T00:22:20;19.98;72.96
40059;SHT31;25763;49.972;8.568;2022-07-22T00:24:45;19.98;73.05
40059;SHT31;25763;49.972;8.568;2022-07-22T00:27:10;19.91;73.15
40059;SHT31;25763;49.972;8.568;2022-07-22T00:29:36;19.90;73.19
40059;SHT31;25763;49.972;8.568;2022-07-22T00:32:01;19.86;73.09
40059;SHT31;25763;49.972;8.568;2022-07-22T00:34:26;19.84;73.28
40059;SHT31;25763;49.972;8.568;2022-07-22T00:36:52;19.79;73.09
40059;SHT31;25763;49.972;8.568;2022-07-22T00:39:17;19.81;73.47
40059;SHT31;25763;49.972;8.568;2022-07-22T00:41:42;19.84;73.26
40059;SHT31;25763;49.972;8.568;2022-07-22T00:44:08;19.80;73.02
40059;SHT31;25763;49.972;8.568;2022-07-22T00:46:35;19.76;73.23
40059;SHT31;25763;49.972;8.568;2022-07-22T00:49:02;19.74;73.44
40059;SHT31;25763;49.972;8.568;2022-07-22T00:51:29;19.69;73.38
40059;SHT31;25763;49.972;8.568;2022-07-22T00:53:55;19.69;73.69
40059;SHT31;25763;49.972;8.568;2022-07-22T00:56:22;19.63;73.70
40059;SHT31;25763;49.972;8.568;2022-07-22T00:58:49;19.66;73.80
40059;SHT31;25763;49.972;8.568;2022-07-22T01:01:15;19.63;73.66
40059;SHT31;25763;49.972;8.568;2022-07-22T01:03:40;19.65;73.67
40059;SHT31;25763;49.972;8.568;2022-07-22T01:06:06;19.61;73.83
40059;SHT31;25763;49.972;8.568;2022-07-22T01:08:32;19.59;74.06
40059;SHT31;25763;49.972;8.568;2022-07-22T01:11:12;19.61;74.12
40059;SHT31;25763;49.972;8.568;2022-07-22T01:13:39;19.61;73.82
40059;SHT31;25763;49.972;8.568;2022-07-22T01:16:06;19.63;73.90
40059;SHT31;25763;49.972;8.568;2022-07-22T01:18:32;19.66;74.02
40059;SHT31;25763;49.972;8.568;2022-07-22T01:20:58;19.62;73.98
40059;SHT31;25763;49.972;8.568;2022-07-22T01:23:23;19.56;74.04
40059;SHT31;25763;49.972;8.568;2022-07-22T01:25:49;19.52;74.24
40059;SHT31;25763;49.972;8.568;2022-07-22T01:28:14;19.49;74.10
40059;SHT31;25763;49.972;8.568;2022-07-22T01:30:40;19.41;74.10
40059;SHT31;25763;49.972;8.568;2022-07-22T01:33:05;19.37;74.57
40059;SHT31;25763;49.972;8.568;2022-07-22T01:35:30;19.26;74.61
40059;SHT31;25763;49.972;8.568;2022-07-22T01:37:56;19.26;74.84
40059;SHT31;25763;49.972;8.568;2022-07-22T01:40:21;19.18;74.70
40059;SHT31;25763;49.972;8.568;2022-07-22T01:42:47;19.14;75.15
40059;SHT31;25763;49.972;8.568;2022-07-22T01:45:12;19.20;75.02
40059;SHT31;25763;49.972;8.568;2022-07-22T01:47:38;19.26;75.07
40059;SHT31;25763;49.972;8.568;2022-07-22T01:50:05;19.24;74.72
40059;SHT31;25763;49.972;8.568;2022-07-22T01:52:32;19.18;74.89
40059;SHT31;25763;49.972;8.568;2022-07-22T01:54:57;19.20;75.01
40059;SHT31;25763;49.972;8.568;2022-07-22T01:57:23;19.20;75.04
40059;SHT31;25763;49.972;8.568;2022-07-22T01:59:48;19.17;75.20
40059;SHT31;25763;49.972;8.568;2022-07-22T02:02:14;19.14;75.32
40059;SHT31;25763;49.972;8.568;2022-07-22T02:04:39;19.12;75.36
40059;SHT31;25763;49.972;8.568;2022-07-22T02:07:04;19.12;75.46
40059;SHT31;25763;49.972;8.568;2022-07-22T02:09:30;19.06;75.15
40059;SHT31;25763;49.972;8.568;2022-07-22T02:11:55;18.99;75.46
40059;SHT31;25763;49.972;8.568;2022-07-22T02:14:20;18.94;75.65
40059;SHT31;25763;49.972;8.568;2022-07-22T02:16:46;18.92;75.61
40059;SHT31;25763;49.972;8.568;2022-07-22T02:19:11;18.85;75.42
40059;SHT31;25763;49.972;8.568;2022-07-22T02:21:37;18.77;75.95
40059;SHT31;25763;49.972;8.568;2022-07-22T02:24:03;18.79;76.06
40059;SHT31;25763;49.972;8.568;2022-07-22T02:26:28;18.77;76.25
40059;SHT31;25763;49.972;8.568;2022-07-22T02:28:54;18.72;76.40
40059;SHT31;25763;49.972;8.568;2022-07-22T02:31:19;18.69;76.37
40059;SHT31;25763;49.972;8.568;2022-07-22T02:33:46;18.68;76.44
40059;SHT31;25763;49.972;8.568;2022-07-22T02:36:11;18.64;76.57
40059;SHT31;25763;49.972;8.568;2022-07-22T02:38:37;18.62;76.74
40059;SHT31;25763;49.972;8.568;2022-07-22T02:41:02;18.58;76.77
40059;SHT31;25763;49.972;8.568;2022-07-22T02:43:27;18.54;76.84
40059;SHT31;25763;49.972;8.568;2022-07-22T02:45:53;18.48;77.13
40059;SHT31;25763;49.972;8.568;2022-07-22T02:48:18;18.47;77.22
40059;SHT31;25763;49.972;8.568;2022-07-22T02:50:47;18.43;77.13
40059;SHT31;25763;49.972;8.568;2022-07-22T02:53:13;18.38;77.00
40059;SHT31;25763;49.972;8.568;2022-07-22T02:55:39;18.35;77.34
40059;SHT31;25763;49.972;8.568;2022-07-22T02:58:05;18.35;77.57
40059;SHT31;25763;49.972;8.568;2022-07-22T03:00:31;18.37;77.43
40059;SHT31;25763;49.972;8.568;2022-07-22T03:02:56;18.40;77.08
40059;SHT31;25763;49.972;8.568;2022-07-22T03:05:21;18.44;76.98
40059;SHT31;25763;49.972;8.568;2022-07-22T03:07:47;18.47;77.01
40059;SHT31;25763;49.972;8.568;2022-07-22T03:10:14;18.47;77.18
40059;SHT31;25763;49.972;8.568;2022-07-22T03:12:39;18.43;77.10
40059;SHT31;25763;49.972;8.568;2022-07-22T03:15:05;18.44;77.53
40059;SHT31;25763;49.972;8.568;2022-07-22T03:17:34;18.44;77.49
40059;SHT31;25763;49.972;8.568;2022-07-22T03:20:02;18.45;77.40
40059;SHT31;25763;49.972;8.568;2022-07-22T03:22:28;18.45;77.24
40059;SHT31;25763;49.972;8.568;2022-07-22T03:24:53;18.52;77.20
40059;SHT31;25763;49.972;8.568;2022-07-22T03:27:18;18.51;77.26
40059;SHT31;25763;49.972;8.568;2022-07-22T03:29:44;18.54;77.16
40059;SHT31;25763;49.972;8.568;2022-07-22T03:32:09;18.58;77.01
40059;SHT31;25763;49.972;8.568;2022-07-22T03:34:34;18.55;77.12
40059;SHT31;25763;49.972;8.568;2022-07-22T03:36:59;18.54;77.04
40059;SHT31;25763;49.972;8.568;2022-07-22T03:39:25;18.55;77.05
40059;SHT31;25763;49.972;8.568;2022-07-22T03:41:50;18.57;77.07
40059;SHT31;25763;49.972;8.568;2022-07-22T03:44:15;18.58;76.96
40059;SHT31;25763;49.972;8.568;2022-07-22T03:46:41;18.57;76.98
40059;SHT31;25763;49.972;8.568;2022-07-22T03:49:06;18.57;76.87
40059;SHT31;25763;49.972;8.568;2022-07-22T03:51:31;18.58;76.91
40059;SHT31;25763;49.972;8.568;2022-07-22T03:53:57;18.61;76.79
40059;SHT31;25763;49.972;8.568;2022-07-22T03:56:22;18.62;76.78
40059;SHT31;25763;49.972;8.568;2022-07-22T03:58:47;18.61;76.70
40059;SHT31;25763;49.972;8.568;2022-07-22T04:01:13;18.62;76.57
40059;SHT31;25763;49.972;8.568;2022-07-22T04:03:38;18.65;76.86
40059;SHT31;25763;49.972;8.568;2022-07-22T04:06:03;18.61;76.51
40059;SHT31;25763;49.972;8.568;2022-07-22T04:08:29;18.61;76.53
40059;SHT31;25763;49.972;8.568;2022-07-22T04:10:54;18.62;76.35
40059;SHT31;25763;49.972;8.568;2022-07-22T04:13:20;18.67;76.49
40059;SHT31;25763;49.972;8.568;2022-07-22T04:15:45;18.68;76.46
40059;SHT31;25763;49.972;8.568;2022-07-22T04:18:10;18.71;76.42
40059;SHT31;25763;49.972;8.568;2022-07-22T04:20:36;18.73;76.45
40059;SHT31;25763;49.972;8.568;2022-07-22T04:23:01;18.72;76.35
40059;SHT31;25763;49.972;8.568;2022-07-22T04:25:26;18.72;76.17
40059;SHT31;25763;49.972;8.568;2022-07-22T04:27:52;18.71;76.11
40059;SHT31;25763;49.972;8.568;2022-07-22T04:30:18;18.69;76.08
40059;SHT31;25763;49.972;8.568;2022-07-22T04:32:43;18.69;76.00
40059;SHT31;25763;49.972;8.568;2022-07-22T04:35:08;18.71;75.95
40059;SHT31;25763;49.972;8.568;2022-07-22T04:37:34;18.72;75.89
40059;SHT31;25763;49.972;8.568;2022-07-22T04:39:59;18.72;75.96
40059;SHT31;25763;49.972;8.568;2022-07-22T04:42:25;18.76;76.15
40059;SHT31;25763;49.972;8.568;2022-07-22T04:44:50;18.73;75.96
40059;SHT31;25763;49.972;8.568;2022-07-22T04:47:15;18.77;75.96
40059;SHT31;25763;49.972;8.568;2022-07-22T04:49:41;18.82;76.00
40059;SHT31;25763;49.972;8.568;2022-07-22T04:52:06;18.85;75.68
40059;SHT31;25763;49.972;8.568;2022-07-22T04:54:32;18.92;75.92
40059;SHT31;25763;49.972;8.568;2022-07-22T04:56:57;18.94;75.57
40059;SHT31;25763;49.972;8.568;2022-07-22T04:59:22;19.03;75.62
40059;SHT31;25763;49.972;8.568;2022-07-22T05:01:48;19.06;75.57
40059;SHT31;25763;49.972;8.568;2022-07-22T05:04:13;19.04;75.53
40059;SHT31;25763;49.972;8.568;2022-07-22T05:06:38;19.06;75.62
40059;SHT31;25763;49.972;8.568;2022-07-22T05:09:04;19.03;75.24
40059;SHT31;25763;49.972;8.568;2022-07-22T05:11:29;19.02;75.36
40059;SHT31;25763;49.972;8.568;2022-07-22T05:13:55;19.00;75.76
40059;SHT31;25763;49.972;8.568;2022-07-22T05:16:20;18.99;75.57
40059;SHT31;25763;49.972;8.568;2022-07-22T05:18:45;18.93;75.55
40059;SHT31;25763;49.972;8.568;2022-07-22T05:21:11;18.92;75.85
40059;SHT31;25763;49.972;8.568;2022-07-22T05:23:36;18.92;75.77
40059;SHT31;25763;49.972;8.568;2022-07-22T05:26:04;18.90;75.81
40059;SHT31;25763;49.972;8.568;2022-07-22T05:28:29;18.96;75.73
40059;SHT31;25763;49.972;8.568;2022-07-22T05:30:54;19.00;75.73
40059;SHT31;25763;49.972;8.568;2022-07-22T05:33:20;19.07;75.36
40059;SHT31;25763;49.972;8.568;2022-07-22T05:35:45;19.12;75.27
40059;SHT31;25763;49.972;8.568;2022-07-22T05:38:10;19.20;75.22
40059;SHT31;25763;49.972;8.568;2022-07-22T05:40:36;19.24;74.98
40059;SHT31;25763;49.972;8.568;2022-07-22T05:43:01;19.38;75.02
40059;SHT31;25763;49.972;8.568;2022-07-22T05:45:26;19.46;75.14
40059;SHT31;25763;49.972;8.568;2022-07-22T05:47:52;19.56;74.86
40059;SHT31;25763;49.972;8.568;2022-07-22T05:50:17;19.65;74.92
40059;SHT31;25763;49.972;8.568;2022-07-22T05:52:42;19.65;74.69
40059;SHT31;25763;49.972;8.568;2022-07-22T05:55:08;19.56;74.68
40059;SHT31;25763;49.972;8.568;2022-07-22T05:57:35;19.65;74.66
40059;SHT31;25763;49.972;8.568;2022-07-22T06:00:01;19.69;74.90
40059;SHT31;25763;49.972;8.568;2022-07-22T06:02:26;19.80;74.67
40059;SHT31;25763;49.972;8.568;2022-07-22T06:04:51;19.88;74.99
40059;SHT31;25763;49.972;8.568;2022-07-22T06:07:17;19.94;74.56
40059;SHT31;25763;49.972;8.568;2022-07-22T06:09:42;20.01;74.21
40059;SHT31;25763;49.972;8.568;2022-07-22T06:12:08;20.01;74.14
40059;SHT31;25763;49.972;8.568;2022-07-22T06:14:34;19.97;73.80
40059;SHT31;25763;49.972;8.568;2022-07-22T06:17:01;19.98;74.39
40059;SHT31;25763;49.972;8.568;2022-07-22T06:19:27;19.98;74.27
40059;SHT31;25763;49.972;8.568;2022-07-22T06:21:54;20.00;74.20
40059;SHT31;25763;49.972;8.568;2022-07-22T06:24:20;20.05;74.56
40059;SHT31;25763;49.972;8.568;2022-07-22T06:26:45;19.97;74.36
40059;SHT31;25763;49.972;8.568;2022-07-22T06:29:10;20.05;74.54
40059;SHT31;25763;49.972;8.568;2022-07-22T06:31:36;19.97;73.78
40059;SHT31;25763;49.972;8.568;2022-07-22T06:34:01;19.98;73.87
40059;SHT31;25763;49.972;8.568;2022-07-22T06:36:31;19.96;73.92
40059;SHT31;25763;49.972;8.568;2022-07-22T06:38:57;20.05;74.46
40059;SHT31;25763;49.972;8.568;2022-07-22T06:41:22;20.29;73.68
40059;SHT31;25763;49.972;8.568;2022-07-22T06:43:47;20.39;73.30
40059;SHT31;25763;49.972;8.568;2022-07-22T06:46:13;20.49;71.82
40059;SHT31;25763;49.972;8.568;2022-07-22T06:48:38;20.47;72.41
40059;SHT31;25763;49.972;8.568;2022-07-22T06:51:04;20.61;72.04
40059;SHT31;25763;49.972;8.568;2022-07-22T06:53:29;20.87;71.31
40059;SHT31;25763;49.972;8.568;2022-07-22T06:55:54;21.04;71.16
40059;SHT31;25763;49.972;8.568;2022-07-22T06:58:20;21.12;70.20
40059;SHT31;25763;49.972;8.568;2022-07-22T07:00:45;21.09;69.77
40059;SHT31;25763;49.972;8.568;2022-07-22T07:03:11;20.99;70.06
40059;SHT31;25763;49.972;8.568;2022-07-22T07:05:36;20.77;70.35
40059;SHT31;25763;49.972;8.568;2022-07-22T07:08:02;20.71;71.24
40059;SHT31;25763;49.972;8.568;2022-07-22T07:10:27;20.90;70.96
40059;SHT31;25763;49.972;8.568;2022-07-22T07:12:56;21.02;71.16
40059;SHT31;25763;49.972;8.568;2022-07-22T07:15:23;20.98;69.72
40059;SHT31;25763;49.972;8.568;2022-07-22T07:17:48;21.22;70.46
40059;SHT31;25763;49.972;8.568;2022-07-22T07:20:13;21.29;70.16
40059;SHT31;25763;49.972;8.568;2022-07-22T07:22:39;21.50;69.82
40059;SHT31;25763;49.972;8.568;2022-07-22T07:25:06;21.58;68.40
40059;SHT31;25763;49.972;8.568;2022-07-22T07:27:32;21.77;68.81
40059;SHT31;25763;49.972;8.568;2022-07-22T07:29:57;21.84;67.80
40059;SHT31;25763;49.972;8.568;2022-07-22T07:32:22;21.91;68.51
40059;SHT31;25763;49.972;8.568;2022-07-22T07:34:48;21.92;68.08
40059;SHT31;25763;49.972;8.568;2022-07-22T07:37:13;22.12;69.18
40059;SHT31;25763;49.972;8.568;2022-07-22T07:39:38;22.17;68.43
40059;SHT31;25763;49.972;8.568;2022-07-22T07:42:04;22.17;66.91
40059;SHT31;25763;49.972;8.568;2022-07-22T07:44:29;22.04;66.17
40059;SHT31;25763;49.972;8.568;2022-07-22T07:46:55;22.24;70.10
40059;SHT31;25763;49.972;8.568;2022-07-22T07:49:20;22.40;66.94
40059;SHT31;25763;49.972;8.568;2022-07-22T07:51:45;22.24;66.69
40059;SHT31;25763;49.972;8.568;2022-07-22T07:54:11;22.63;66.56
40059;SHT31;25763;49.972;8.568;2022-07-22T07:56:36;22.20;66.51
40059;SHT31;25763;49.972;8.568;2022-07-22T07:59:02;22.27;67.48
40059;SHT31;25763;49.972;8.568;2022-07-22T08:01:27;22.60;69.14
40059;SHT31;25763;49.972;8.568;2022-07-22T08:03:52;22.67;66.83
40059;SHT31;25763;49.972;8.568;2022-07-22T08:06:18;22.69;65.77
40059;SHT31;25763;49.972;8.568;2022-07-22T08:08:43;22.89;65.87
40059;SHT31;25763;49.972;8.568;2022-07-22T08:11:08;22.58;65.21
40059;SHT31;25763;49.972;8.568;2022-07-22T08:13:34;22.30;66.17
40059;SHT31;25763;49.972;8.568;2022-07-22T08:15:59;22.57;67.96
40059;SHT31;25763;49.972;8.568;2022-07-22T08:18:26;22.83;67.53
40059;SHT31;25763;49.972;8.568;2022-07-22T08:20:52;22.91;66.18
40059;SHT31;25763;49.972;8.568;2022-07-22T08:23:17;23.12;68.21
40059;SHT31;25763;49.972;8.568;2022-07-22T08:25:42;23.26;66.20
40059;SHT31;25763;49.972;8.568;2022-07-22T08:28:08;23.03;64.99
40059;SHT31;25763;49.972;8.568;2022-07-22T08:30:33;22.98;65.04
40059;SHT31;25763;49.972;8.568;2022-07-22T08:32:59;23.00;65.79
40059;SHT31;25763;49.972;8.568;2022-07-22T08:35:24;22.83;65.12
40059;SHT31;25763;49.972;8.568;2022-07-22T08:37:50;22.99;65.06
40059;SHT31;25763;49.972;8.568;2022-07-22T08:40:16;22.95;65.61
40059;SHT31;25763;49.972;8.568;2022-07-22T08:42:43;23.30;66.91
40059;SHT31;25763;49.972;8.568;2022-07-22T08:45:10;23.28;63.32
40059;SHT31;25763;49.972;8.568;2022-07-22T08:47:36;23.41;63.32
40059;SHT31;25763;49.972;8.568;2022-07-22T08:50:03;23.35;62.62
40059;SHT31;25763;49.972;8.568;2022-07-22T08:52:29;23.31;63.64
40059;SHT31;25763;49.972;8.568;2022-07-22T08:54:55;23.52;63.95
40059;SHT31;25763;49.972;8.568;2022-07-22T08:57:20;23.72;64.70
40059;SHT31;25763;49.972;8.568;2022-07-22T08:59:54;23.74;63.10
40059;SHT31;25763;49.972;8.568;2022-07-22T09:02:20;23.52;61.29
40059;SHT31;25763;49.972;8.568;2022-07-22T09:04:58;23.78;64.19
40059;SHT31;25763;49.972;8.568;2022-07-22T09:07:31;24.00;63.38
40059;SHT31;25763;49.972;8.568;2022-07-22T09:09:58;24.10;61.17
40059;SHT31;25763;49.972;8.568;2022-07-22T09:12:24;24.16;62.52
40059;SHT31;25763;49.972;8.568;2022-07-22T09:14:51;24.34;64.09
40059;SHT31;25763;49.972;8.568;2022-07-22T09:19:53;24.51;60.94
40059;SHT31;25763;49.972;8.568;2022-07-22T09:22:39;24.44;58.68
40059;SHT31;25763;49.972;8.568;2022-07-22T09:27:45;24.66;61.26
40059;SHT31;25763;49.972;8.568;2022-07-22T09:30:15;24.84;60.79
40059;SHT31;25763;49.972;8.568;2022-07-22T09:32:42;24.97;61.26
40059;SHT31;25763;49.972;8.568;2022-07-22T09:35:08;24.99;60.78
40059;SHT31;25763;49.972;8.568;2022-07-22T09:37:33;24.69;58.59
40059;SHT31;25763;49.972;8.568;2022-07-22T09:40:13;24.86;61.35
40059;SHT31;25763;49.972;8.568;2022-07-22T09:42:50;25.06;60.92
40059;SHT31;25763;49.972;8.568;2022-07-22T09:45:16;25.22;60.06
40059;SHT31;25763;49.972;8.568;2022-07-22T09:47:43;25.22;58.67
40059;SHT31;25763;49.972;8.568;2022-07-22T09:50:32;25.53;61.07
40059;SHT31;25763;49.972;8.568;2022-07-22T09:52:59;25.46;58.53
40059;SHT31;25763;49.972;8.568;2022-07-22T09:55:27;25.67;58.54
40059;SHT31;25763;49.972;8.568;2022-07-22T09:57:54;25.80;58.47
40059;SHT31;25763;49.972;8.568;2022-07-22T10:00:22;25.79;57.35
40059;SHT31;25763;49.972;8.568;2022-07-22T10:02:59;25.66;55.54
40059;SHT31;25763;49.972;8.568;2022-07-22T10:05:27;25.83;57.73
40059;SHT31;25763;49.972;8.568;2022-07-22T10:07:54;26.00;59.06
40059;SHT31;25763;49.972;8.568;2022-07-22T10:10:22;26.09;57.90
40059;SHT31;25763;49.972;8.568;2022-07-22T10:12:49;25.93;55.03
40059;SHT31;25763;49.972;8.568;2022-07-22T10:15:15;25.73;54.88
40059;SHT31;25763;49.972;8.568;2022-07-22T10:17:44;25.67;56.08
40059;SHT31;25763;49.972;8.568;2022-07-22T10:20:10;25.59;55.04
40059;SHT31;25763;49.972;8.568;2022-07-22T10:25:06;25.77;57.31
40059;SHT31;25763;49.972;8.568;2022-07-22T10:27:57;25.83;54.49
40059;SHT31;25763;49.972;8.568;2022-07-22T10:30:29;25.93;54.61
40059;SHT31;25763;49.972;8.568;2022-07-22T10:33:12;26.04;54.22
40059;SHT31;25763;49.972;8.568;2022-07-22T10:35:53;26.22;53.39
40059;SHT31;25763;49.972;8.568;2022-07-22T10:38:19;26.11;55.90
40059;SHT31;25763;49.972;8.568;2022-07-22T10:40:54;26.17;55.36
40059;SHT31;25763;49.972;8.568;2022-07-22T10:43:22;26.38;53.59
40059;SHT31;25763;49.972;8.568;2022-07-22T10:46:02;26.61;51.78
40059;SHT31;25763;49.972;8.568;2022-07-22T10:51:19;26.61;49.74
40059;SHT31;25763;49.972;8.568;2022-07-22T10:54:02;26.67;51.95
40059;SHT31;25763;49.972;8.568;2022-07-22T10:56:31;26.83;50.10
40059;SHT31;25763;49.972;8.568;2022-07-22T10:59:11;26.31;52.27
40059;SHT31;25763;49.972;8.568;2022-07-22T11:01:46;26.68;54.34
40059;SHT31;25763;49.972;8.568;2022-07-22T11:06:42;27.39;51.82
40059;SHT31;25763;49.972;8.568;2022-07-22T11:09:10;27.78;50.29
40059;SHT31;25763;49.972;8.568;2022-07-22T11:11:45;27.73;49.16
40059;SHT31;25763;49.972;8.568;2022-07-22T11:16:39;28.10;45.66
40059;SHT31;25763;49.972;8.568;2022-07-22T11:19:05;27.95;49.18
40059;SHT31;25763;49.972;8.568;2022-07-22T11:21:32;28.32;50.82
40059;SHT31;25763;49.972;8.568;2022-07-22T11:24:00;28.48;50.26
40059;SHT31;25763;49.972;8.568;2022-07-22T11:26:39;28.22;45.08
40059;SHT31;25763;49.972;8.568;2022-07-22T11:29:05;28.29;46.01
40059;SHT31;25763;49.972;8.568;2022-07-22T11:31:31;28.26;47.13
40059;SHT31;25763;49.972;8.568;2022-07-22T11:36:33;28.13;44.75
40059;SHT31;25763;49.972;8.568;2022-07-22T11:38:58;28.20;45.92
40059;SHT31;25763;49.972;8.568;2022-07-22T11:41:23;28.54;46.48
40059;SHT31;25763;49.972;8.568;2022-07-22T11:43:50;28.98;45.85
40059;SHT31;25763;49.972;8.568;2022-07-22T11:46:17;29.24;47.52
40059;SHT31;25763;49.972;8.568;2022-07-22T11:48:43;28.89;44.43
40059;SHT31;25763;49.972;8.568;2022-07-22T11:51:12;28.72;45.40
40059;SHT31;25763;49.972;8.568;2022-07-22T11:53:41;28.65;45.49
40059;SHT31;25763;49.972;8.568;2022-07-22T11:56:08;29.23;49.54
40059;SHT31;25763;49.972;8.568;2022-07-22T11:58:41;29.61;45.60
40059;SHT31;25763;49.972;8.568;2022-07-22T12:01:12;29.65;44.76
40059;SHT31;25763;49.972;8.568;2022-07-22T12:03:40;29.57;41.95
40059;SHT31;25763;49.972;8.568;2022-07-22T12:06:09;29.10;44.64
40059;SHT31;25763;49.972;8.568;2022-07-22T12:08:41;28.78;44.29
40059;SHT31;25763;49.972;8.568;2022-07-22T12:11:08;28.39;44.89
40059;SHT31;25763;49.972;8.568;2022-07-22T12:13:34;28.60;44.49
40059;SHT31;25763;49.972;8.568;2022-07-22T12:15:59;28.78;43.21
40059;SHT31;25763;49.972;8.568;2022-07-22T12:18:26;28.98;44.92
40059;SHT31;25763;49.972;8.568;2022-07-22T12:20:54;29.27;43.47
40059;SHT31;25763;49.972;8.568;2022-07-22T12:23:21;29.38;42.66
40059;SHT31;25763;49.972;8.568;2022-07-22T12:25:59;29.37;43.55
40059;SHT31;25763;49.972;8.568;2022-07-22T12:28:25;29.37;42.41
40059;SHT31;25763;49.972;8.568;2022-07-22T12:30:52;29.18;42.95
40059;SHT31;25763;49.972;8.568;2022-07-22T12:33:19;29.11;43.28
40059;SHT31;25763;49.972;8.568;2022-07-22T12:36:01;29.13;44.78
40059;SHT31;25763;49.972;8.568;2022-07-22T12:38:27;29.66;45.83
40059;SHT31;25763;49.972;8.568;2022-07-22T12:40:52;30.04;43.36
40059;SHT31;25763;49.972;8.568;2022-07-22T12:43:23;30.18;42.81
40059;SHT31;25763;49.972;8.568;2022-07-22T12:45:49;30.28;44.97
40059;SHT31;25763;49.972;8.568;2022-07-22T12:48:14;30.03;40.93
40059;SHT31;25763;49.972;8.568;2022-07-22T12:53:18;30.55;44.71
40059;SHT31;25763;49.972;8.568;2022-07-22T12:55:55;30.84;43.96
40059;SHT31;25763;49.972;8.568;2022-07-22T12:58:23;30.83;41.54
40059;SHT31;25763;49.972;8.568;2022-07-22T13:00:51;30.27;41.45
40059;SHT31;25763;49.972;8.568;2022-07-22T13:03:18;30.21;42.24
40059;SHT31;25763;49.972;8.568;2022-07-22T13:05:55;30.16;40.52
40059;SHT31;25763;49.972;8.568;2022-07-22T13:08:21;29.93;41.33
40059;SHT31;25763;49.972;8.568;2022-07-22T13:10:47;29.89;42.51
40059;SHT31;25763;49.972;8.568;2022-07-22T13:13:13;30.17;44.13
40059;SHT31;25763;49.972;8.568;2022-07-22T13:15:38;30.01;43.43
40059;SHT31;25763;49.972;8.568;2022-07-22T13:18:04;30.49;42.35
40059;SHT31;25763;49.972;8.568;2022-07-22T13:20:30;30.36;41.88
40059;SHT31;25763;49.972;8.568;2022-07-22T13:22:55;30.29;42.31
40059;SHT31;25763;49.972;8.568;2022-07-22T13:25:21;30.62;44.91
40059;SHT31;25763;49.972;8.568;2022-07-22T13:27:46;30.48;40.27
40059;SHT31;25763;49.972;8.568;2022-07-22T13:30:12;30.83;45.49
40059;SHT31;25763;49.972;8.568;2022-07-22T13:32:37;31.20;43.97
40059;SHT31;25763;49.972;8.568;2022-07-22T13:35:03;31.49;42.64
40059;SHT31;25763;49.972;8.568;2022-07-22T13:37:29;31.53;40.99
40059;SHT31;25763;49.972;8.568;2022-07-22T13:39:54;31.70;41.69
40059;SHT31;25763;49.972;8.568;2022-07-22T13:42:19;31.70;41.89
40059;SHT31;25763;49.972;8.568;2022-07-22T13:44:46;31.87;43.21
40059;SHT31;25763;49.972;8.568;2022-07-22T13:47:12;32.15;41.83
40059;SHT31;25763;49.972;8.568;2022-07-22T13:49:38;32.12;39.12
40059;SHT31;25763;49.972;8.568;2022-07-22T13:52:04;31.38;38.23
40059;SHT31;25763;49.972;8.568;2022-07-22T13:54:30;31.36;41.46
40059;SHT31;25763;49.972;8.568;2022-07-22T13:56:55;31.73;42.70
40059;SHT31;25763;49.972;8.568;2022-07-22T13:59:23;31.73;41.00
40059;SHT31;25763;49.972;8.568;2022-07-22T14:01:48;31.70;38.80
40059;SHT31;25763;49.972;8.568;2022-07-22T14:04:14;31.53;39.17
40059;SHT31;25763;49.972;8.568;2022-07-22T14:06:39;31.47;40.51
40059;SHT31;25763;49.972;8.568;2022-07-22T14:09:05;31.15;40.65
40059;SHT31;25763;49.972;8.568;2022-07-22T14:11:30;31.10;39.09
40059;SHT31;25763;49.972;8.568;2022-07-22T14:13:56;30.94;40.67
40059;SHT31;25763;49.972;8.568;2022-07-22T14:16:21;31.20;40.15
40059;SHT31;25763;49.972;8.568;2022-07-22T14:18:59;30.97;39.92
40059;SHT31;25763;49.972;8.568;2022-07-22T14:21:24;30.90;39.32
40059;SHT31;25763;49.972;8.568;2022-07-22T14:23:49;30.95;40.75
40059;SHT31;25763;49.972;8.568;2022-07-22T14:26:15;31.10;40.37
40059;SHT31;25763;49.972;8.568;2022-07-22T14:28:40;30.24;40.18
40059;SHT31;25763;49.972;8.568;2022-07-22T14:31:06;30.45;41.38
40059;SHT31;25763;49.972;8.568;2022-07-22T14:33:31;31.08;42.63
40059;SHT31;25763;49.972;8.568;2022-07-22T14:35:56;31.21;39.63
40059;SHT31;25763;49.972;8.568;2022-07-22T14:38:22;30.95;41.12
40059;SHT31;25763;49.972;8.568;2022-07-22T14:40:47;31.47;40.06
40059;SHT31;25763;49.972;8.568;2022-07-22T14:43:12;31.69;41.25
40059;SHT31;25763;49.972;8.568;2022-07-22T14:45:38;31.97;41.34
40059;SHT31;25763;49.972;8.568;2022-07-22T14:48:03;32.49;41.97
40059;SHT31;25763;49.972;8.568;2022-07-22T14:50:29;32.38;38.16
40059;SHT31;25763;49.972;8.568;2022-07-22T14:52:54;32.35;40.18
40059;SHT31;25763;49.972;8.568;2022-07-22T14:55:19;32.53;40.96
40059;SHT31;25763;49.972;8.568;2022-07-22T14:57:45;32.29;38.85
40059;SHT31;25763;49.972;8.568;2022-07-22T15:00:10;32.12;38.49
40059;SHT31;25763;49.972;8.568;2022-07-22T15:02:36;31.38;39.01
40059;SHT31;25763;49.972;8.568;2022-07-22T15:05:01;31.36;39.81
40059;SHT31;25763;49.972;8.568;2022-07-22T15:07:26;31.87;41.56
40059;SHT31;25763;49.972;8.568;2022-07-22T15:09:52;32.20;40.12
40059;SHT31;25763;49.972;8.568;2022-07-22T15:12:17;32.45;40.83
40059;SHT31;25763;49.972;8.568;2022-07-22T15:14:43;32.55;38.97
40059;SHT31;25763;49.972;8.568;2022-07-22T15:17:08;32.51;39.57
40059;SHT31;25763;49.972;8.568;2022-07-22T15:19:34;32.57;40.09
40059;SHT31;25763;49.972;8.568;2022-07-22T15:21:59;32.62;38.68
40059;SHT31;25763;49.972;8.568;2022-07-22T15:24:25;32.67;39.80
40059;SHT31;25763;49.972;8.568;2022-07-22T15:26:50;32.66;40.62
40059;SHT31;25763;49.972;8.568;2022-07-22T15:29:16;32.73;40.31
40059;SHT31;25763;49.972;8.568;2022-07-22T15:31:41;32.79;39.46
40059;SHT31;25763;49.972;8.568;2022-07-22T15:34:07;32.84;40.73
40059;SHT31;25763;49.972;8.568;2022-07-22T15:36:32;32.87;38.37
40059;SHT31;25763;49.972;8.568;2022-07-22T15:38:57;32.43;40.24
40059;SHT31;25763;49.972;8.568;2022-07-22T15:41:23;32.17;39.14
40059;SHT31;25763;49.972;8.568;2022-07-22T15:43:48;32.35;40.43
40059;SHT31;25763;49.972;8.568;2022-07-22T15:46:13;32.42;38.53